KLBE/LBE METAR and TAF weather

Enter ICAO airport designator
Station Type Date Time Source
KLBE METAR 2021/08/05 04:35 UTC NOAA

KLBE 050435Z AUTO 00000KT 10SM BKN060 18/17 A3014 RMK AO2


Station Type Date Time Source
KLBE Decoded METAR 2021/08/05 04:35 UTC NOAA

Latrobe / Westmorland, PA, United States (KLBE) 40-17N 079-24W
Aug 05, 2021 - 12:35 AM EDT / 2021.08.05 0435 UTC
Wind: Calm:0
Visibility: 10 mile(s):0
Sky conditions: mostly cloudy
Temperature: 64 F (18 C)
Dew Point: 62 F (17 C)
Relative Humidity: 93%
Pressure (altimeter): 30.14 in. Hg (1020 hPa)
ob: KLBE 050435Z AUTO 00000KT 10SM BKN060 18/17 A3014 RMK AO2
cycle: 4

Station Type Date Time Source
KLBE TAF 2021/08/04 20:46 UTC NOAA

TAF
AMD KLBE 041943Z 0420/0518 09003KT P6SM VCTS BKN030CB
FM042200 00000KT P6SM SCT100

Example: see airport list